Time;durP1;ratioP1;P1;durP2;ratioP2;P2;SDS_P1;SDS_P2;PMS_P1;PMS_P2;Temp;Humidity;BMP_temperature;BMP_pressure;BME280_temperature;BME280_humidity;BME280_pressure;Samples;Min_cycle;Max_cycle;Signal;HPM_P1;HPM_P2
2022/04/29 00:01:00;;;;;;;;;;;6.90;99.90;;;;;;5015055;28;19936;-69
2022/04/29 00:03:31;;;;;;;;;;;6.90;99.90;;;;;;5015769;28;19930;-69
2022/04/29 00:06:03;;;;;;;;;;;6.90;99.90;;;;;;5009862;28;20298;-69
2022/04/29 00:08:36;;;;;;;;;;;6.90;99.90;;;;;;5035714;28;20012;-69
2022/04/29 00:11:02;;;;;;;;;;;6.80;99.90;;;;;;5017727;28;19925;-70
2022/04/29 00:13:34;;;;;;;;;;;6.80;99.90;;;;;;5007435;28;19926;-69
2022/04/29 00:16:05;;;;;;;;;;;6.80;99.90;;;;;;4992682;28;19940;-69
2022/04/29 00:18:32;;;;;;;;;;;6.80;99.90;;;;;;5014190;28;20301;-69
2022/04/29 00:21:04;;;;;;;;;;;6.70;99.90;;;;;;4998869;28;20025;-69
2022/04/29 00:23:31;;;;;;;;;;;6.80;99.90;;;;;;5014381;28;19929;-69
2022/04/29 00:26:02;;;;;;;;;;;6.80;99.90;;;;;;5027044;28;19925;-69
2022/04/29 00:28:30;;;;;;;;;;;6.70;99.90;;;;;;5007260;28;20442;-69
2022/04/29 00:30:57;;;;;;;;;;;6.60;99.90;;;;;;5014468;28;19926;-69
2022/04/29 00:33:28;;;;;;;;;;;6.60;99.90;;;;;;5014097;28;19925;-69
2022/04/29 00:35:55;;;;;;;;;;;6.60;99.90;;;;;;5001767;28;19964;-69
2022/04/29 00:38:22;;;;;;;;;;;6.50;99.90;;;;;;5015025;28;19929;-69
2022/04/29 00:40:48;;;;;;;;;;;6.40;99.90;;;;;;4997715;28;19932;-69
2022/04/29 00:43:20;;;;;;;;;;;6.30;99.90;;;;;;5013707;28;19941;-69
2022/04/29 00:45:51;;;;;;;;;;;6.20;99.90;;;;;;5030499;28;20385;-69
2022/04/29 00:48:19;;;;;;;;;;;6.20;99.90;;;;;;5013896;28;19957;-69
2022/04/29 00:50:50;;;;;;;;;;;6.20;99.90;;;;;;5030842;28;19972;-69
2022/04/29 00:53:22;;;;;;;;;;;6.20;99.90;;;;;;5030076;28;19984;-69
2022/04/29 00:55:55;;;;;;;;;;;6.10;99.90;;;;;;5015497;28;19975;-69
2022/04/29 00:58:23;;;;;;;;;;;6.10;99.90;;;;;;5000820;28;19932;-69
2022/04/29 01:00:55;;;;;;;;;;;6.00;99.90;;;;;;5022967;28;19925;-69
2022/04/29 01:03:23;;;;;;;;;;;6.00;99.90;;;;;;5016190;28;19936;-69
2022/04/29 01:05:54;;;;;;;;;;;6.00;99.90;;;;;;5006342;28;19925;-69
2022/04/29 01:08:26;;;;;;;;;;;5.90;99.90;;;;;;4996853;28;19960;-69
2022/04/29 01:10:53;;;;;;;;;;;5.90;99.90;;;;;;4996482;28;20477;-69
2022/04/29 01:13:26;;;;;;;;;;;5.90;99.90;;;;;;4997778;28;20016;-69
2022/04/29 01:15:58;;;;;;;;;;;5.90;99.90;;;;;;5010642;28;19925;-69
2022/04/29 01:18:30;;;;;;;;;;;5.90;99.90;;;;;;5032224;28;19979;-69
2022/04/29 01:21:03;;;;;;;;;;;5.90;99.90;;;;;;4997068;28;19953;-69
2022/04/29 01:23:31;;;;;;;;;;;5.80;99.90;;;;;;5009868;28;20317;-70
2022/04/29 01:26:04;;;;;;;;;;;5.80;99.90;;;;;;5014960;28;19936;-69
2022/04/29 01:28:36;;;;;;;;;;;5.80;99.90;;;;;;5032086;28;20011;-69
2022/04/29 01:31:10;;;;;;;;;;;5.70;99.90;;;;;;5032416;28;19925;-69
2022/04/29 01:33:44;;;;;;;;;;;5.70;99.90;;;;;;5030462;28;19971;-69
2022/04/29 01:36:17;;;;;;;;;;;5.70;99.90;;;;;;5013796;28;19931;-69
2022/04/29 01:38:48;;;;;;;;;;;5.70;99.90;;;;;;5015598;28;20008;-69
2022/04/29 01:41:20;;;;;;;;;;;5.70;99.90;;;;;;5015706;28;19925;-69
2022/04/29 01:43:47;;;;;;;;;;;5.70;99.90;;;;;;5015179;28;19929;-70
2022/04/29 01:46:19;;;;;;;;;;;5.60;99.90;;;;;;5002020;28;19960;-69
2022/04/29 01:49:09;;;;;;;;;;;5.60;99.90;;;;;;5015574;28;19932;-69
2022/04/29 01:51:43;;;;;;;;;;;5.60;99.90;;;;;;5032331;28;19979;-69
2022/04/29 01:54:12;;;;;;;;;;;5.60;99.90;;;;;;5013733;28;20012;-69
2022/04/29 01:56:47;;;;;;;;;;;5.50;99.90;;;;;;5015287;28;19924;-69
2022/04/29 01:59:19;;;;;;;;;;;5.40;99.90;;;;;;5031924;28;19925;-70
2022/04/29 02:02:06;;;;;;;;;;;5.40;99.90;;;;;;5015183;28;19925;-68
2022/04/29 02:04:38;;;;;;;;;;;5.40;99.90;;;;;;5031174;28;19925;-69
2022/04/29 02:07:11;;;;;;;;;;;5.40;99.90;;;;;;4995752;28;19980;-69
2022/04/29 02:09:44;;;;;;;;;;;5.40;99.90;;;;;;4980623;28;20401;-69
2022/04/29 02:12:17;;;;;;;;;;;5.30;99.90;;;;;;4989437;28;19925;-70
2022/04/29 02:15:07;;;;;;;;;;;5.30;99.90;;;;;;5000689;28;19932;-70
2022/04/29 02:17:40;;;;;;;;;;;5.30;99.90;;;;;;5014689;28;19925;-71
2022/04/29 02:20:12;;;;;;;;;;;5.30;99.90;;;;;;5021779;28;20012;-70
2022/04/29 02:22:44;;;;;;;;;;;5.20;99.90;;;;;;4997594;28;19926;-70
2022/04/29 02:25:15;;;;;;;;;;;5.20;99.90;;;;;;5009497;28;19925;-70
2022/04/29 02:27:47;;;;;;;;;;;5.20;99.90;;;;;;5025556;28;19926;-70
2022/04/29 02:30:19;;;;;;;;;;;5.20;99.90;;;;;;5010080;28;20309;-70
2022/04/29 02:32:51;;;;;;;;;;;5.20;99.90;;;;;;4998263;28;20460;-70
2022/04/29 02:35:18;;;;;;;;;;;5.20;99.90;;;;;;5022429;28;19925;-70
2022/04/29 02:37:50;;;;;;;;;;;5.10;99.90;;;;;;5005659;28;19995;-70
2022/04/29 02:40:23;;;;;;;;;;;5.20;99.90;;;;;;4996301;28;19929;-71
2022/04/29 02:42:54;;;;;;;;;;;5.10;99.90;;;;;;5004024;28;19953;-70
2022/04/29 02:45:26;;;;;;;;;;;5.00;99.90;;;;;;5011447;28;19929;-70
2022/04/29 02:47:58;;;;;;;;;;;5.00;99.90;;;;;;5011773;28;19964;-70
2022/04/29 02:50:30;;;;;;;;;;;5.00;99.90;;;;;;5015642;28;20011;-70
2022/04/29 02:53:03;;;;;;;;;;;5.00;99.90;;;;;;5008007;28;19933;-70
2022/04/29 02:55:36;;;;;;;;;;;5.00;99.90;;;;;;5009822;28;20035;-70
2022/04/29 02:58:12;;;;;;;;;;;5.10;99.90;;;;;;5014027;28;19929;-70
2022/04/29 03:00:40;;;;;;;;;;;4.90;99.90;;;;;;5012656;28;20412;-70
2022/04/29 03:03:12;;;;;;;;;;;4.90;99.90;;;;;;5014953;28;19961;-70
2022/04/29 03:05:43;;;;;;;;;;;4.90;99.90;;;;;;5010472;28;20433;-70
2022/04/29 03:08:15;;;;;;;;;;;4.90;99.90;;;;;;5004105;28;19967;-70
2022/04/29 03:10:41;;;;;;;;;;;4.80;99.90;;;;;;5007795;28;19929;-70
2022/04/29 03:13:14;;;;;;;;;;;4.80;99.90;;;;;;5009286;28;19926;-70
2022/04/29 03:15:54;;;;;;;;;;;4.80;99.90;;;;;;5013206;28;19925;-70
2022/04/29 03:18:26;;;;;;;;;;;4.80;99.90;;;;;;5016278;28;19929;-70
2022/04/29 03:20:56;;;;;;;;;;;4.70;99.90;;;;;;5019937;28;19925;-70
2022/04/29 03:23:28;;;;;;;;;;;4.60;99.90;;;;;;4985710;28;19932;-70
2022/04/29 03:26:00;;;;;;;;;;;4.50;99.90;;;;;;5018235;28;19933;-70
2022/04/29 03:28:28;;;;;;;;;;;4.50;99.90;;;;;;5013916;28;20413;-70
2022/04/29 03:31:00;;;;;;;;;;;4.40;99.90;;;;;;5014636;28;20449;-70
2022/04/29 03:33:50;;;;;;;;;;;4.50;99.90;;;;;;5026022;28;19937;-70
2022/04/29 03:36:17;;;;;;;;;;;4.40;99.90;;;;;;5015515;28;19925;-70
2022/04/29 03:38:51;;;;;;;;;;;4.40;99.90;;;;;;5013862;28;19956;-70
2022/04/29 03:41:23;;;;;;;;;;;4.40;99.90;;;;;;5015277;28;19951;-70
2022/04/29 03:43:55;;;;;;;;;;;4.40;99.90;;;;;;5008996;28;19933;-70
2022/04/29 03:46:33;;;;;;;;;;;4.30;99.90;;;;;;5003186;28;20974;-70
2022/04/29 03:52:06;;;;;;;;;;;4.30;99.90;;;;;;5016612;28;19961;-70
2022/04/29 03:54:38;;;;;;;;;;;4.30;99.90;;;;;;5005600;28;19932;-70
2022/04/29 03:57:09;;;;;;;;;;;4.30;99.90;;;;;;5017649;28;20020;-70
2022/04/29 03:59:41;;;;;;;;;;;4.30;99.90;;;;;;5029435;28;19951;-70
2022/04/29 04:02:13;;;;;;;;;;;4.20;99.90;;;;;;5010061;28;20405;-69
2022/04/29 04:04:46;;;;;;;;;;;4.20;99.90;;;;;;5026321;28;19933;-70
2022/04/29 04:07:17;;;;;;;;;;;4.20;99.90;;;;;;5013090;28;19956;-70
2022/04/29 04:09:58;;;;;;;;;;;4.10;99.90;;;;;;5005516;28;19925;-70
2022/04/29 04:12:40;;;;;;;;;;;4.20;99.90;;;;;;5010442;28;19983;-73
2022/04/29 04:15:38;;;;;;;;;;;4.10;99.90;;;;;;5025235;28;20358;-70
2022/04/29 04:18:09;;;;;;;;;;;4.00;99.90;;;;;;5017330;28;20333;-69
2022/04/29 04:20:41;;;;;;;;;;;4.10;99.90;;;;;;5008259;28;19925;-71
2022/04/29 04:23:13;;;;;;;;;;;4.10;99.90;;;;;;5020797;28;20298;-71
2022/04/29 04:25:44;;;;;;;;;;;4.10;99.90;;;;;;5010792;28;20315;-71
2022/04/29 04:28:18;;;;;;;;;;;4.20;99.90;;;;;;5013969;28;20028;-70
2022/04/29 04:30:48;;;;;;;;;;;4.20;99.90;;;;;;5014648;28;19924;-70
2022/04/29 04:33:24;;;;;;;;;;;4.10;99.90;;;;;;5016968;28;20341;-69
2022/04/29 04:35:56;;;;;;;;;;;4.10;99.90;;;;;;5005359;28;20470;-72
2022/04/29 04:38:28;;;;;;;;;;;4.00;99.90;;;;;;4997187;28;20297;-73
2022/04/29 04:41:04;;;;;;;;;;;4.10;99.90;;;;;;4995099;28;19982;-73
2022/04/29 04:43:31;;;;;;;;;;;4.10;99.90;;;;;;5013784;28;19926;-73
2022/04/29 04:46:01;;;;;;;;;;;4.20;99.90;;;;;;5007751;28;20483;-71
2022/04/29 04:48:39;;;;;;;;;;;4.20;99.90;;;;;;5032724;28;19938;-72
2022/04/29 04:51:29;;;;;;;;;;;4.30;99.90;;;;;;5018726;28;19987;-68
2022/04/29 04:54:04;;;;;;;;;;;4.40;99.90;;;;;;5012935;28;19982;-71
2022/04/29 04:56:38;;;;;;;;;;;4.30;99.90;;;;;;5028935;28;19932;-71
2022/04/29 04:59:11;;;;;;;;;;;4.30;99.90;;;;;;4999956;28;19933;-71
2022/04/29 05:01:42;;;;;;;;;;;4.30;99.90;;;;;;5010877;28;19925;-72
2022/04/29 05:04:32;;;;;;;;;;;4.30;99.90;;;;;;5030978;28;19936;-72
2022/04/29 05:07:22;;;;;;;;;;;4.40;99.90;;;;;;5033036;28;20036;-72
2022/04/29 05:09:49;;;;;;;;;;;4.40;99.90;;;;;;5032600;28;19960;-72
2022/04/29 05:12:21;;;;;;;;;;;4.40;99.90;;;;;;5012367;28;19994;-71
2022/04/29 05:15:08;;;;;;;;;;;4.40;99.90;;;;;;5023292;28;19926;-72
2022/04/29 05:17:40;;;;;;;;;;;4.30;99.90;;;;;;5015052;28;19935;-71
2022/04/29 05:20:31;;;;;;;;;;;4.30;99.90;;;;;;5022316;28;19932;-71
2022/04/29 05:23:03;;;;;;;;;;;4.40;99.90;;;;;;5011239;28;19932;-72
2022/04/29 05:25:55;;;;;;;;;;;4.40;99.90;;;;;;5032262;28;19925;-71
2022/04/29 05:28:47;;;;;;;;;;;4.50;99.90;;;;;;4994214;28;19925;-72
2022/04/29 05:31:45;;;;;;;;;;;4.50;99.90;;;;;;5016412;28;19932;-72
2022/04/29 05:34:48;;;;;;;;;;;4.60;99.90;;;;;;5011128;28;19932;-72
2022/04/29 05:37:40;;;;;;;;;;;4.60;99.90;;;;;;5031775;28;19936;-72
2022/04/29 05:43:07;;;;;;;;;;;4.70;99.90;;;;;;5014434;28;19931;-72
2022/04/29 05:45:39;;;;;;;;;;;4.80;99.90;;;;;;5014522;28;19926;-71
2022/04/29 05:48:11;;;;;;;;;;;4.80;99.90;;;;;;5014797;28;19925;-71
2022/04/29 05:50:42;;;;;;;;;;;4.90;99.90;;;;;;5031993;28;20011;-71
2022/04/29 05:53:09;;;;;;;;;;;5.00;99.90;;;;;;5005071;28;19932;-73
2022/04/29 05:55:39;;;;;;;;;;;5.00;99.90;;;;;;4995454;28;19925;-71
2022/04/29 05:58:06;;;;;;;;;;;5.10;99.90;;;;;;5011936;28;19926;-72
2022/04/29 06:00:35;;;;;;;;;;;5.10;99.90;;;;;;5014702;28;19929;-72
2022/04/29 06:03:09;;;;;;;;;;;5.20;99.90;;;;;;5014211;28;19929;-72
2022/04/29 06:05:36;;;;;;;;;;;5.20;99.90;;;;;;5000667;28;19925;-71
2022/04/29 06:08:07;;;;;;;;;;;5.30;99.90;;;;;;5014220;28;19932;-72
2022/04/29 06:10:40;;;;;;;;;;;5.30;99.90;;;;;;5013694;28;20039;-72
2022/04/29 06:13:08;;;;;;;;;;;5.40;99.90;;;;;;5014031;28;19932;-72
2022/04/29 06:16:00;;;;;;;;;;;5.40;99.90;;;;;;5016233;28;19925;-71
2022/04/29 06:18:47;;;;;;;;;;;5.50;99.90;;;;;;5030749;28;20535;-72
2022/04/29 06:21:30;;;;;;;;;;;5.60;99.90;;;;;;5012752;28;19925;-72
2022/04/29 06:24:15;;;;;;;;;;;5.70;99.90;;;;;;5012885;28;20394;-71
2022/04/29 06:26:44;;;;;;;;;;;5.80;99.90;;;;;;5012446;28;21465;-72
2022/04/29 06:29:11;;;;;;;;;;;5.90;99.90;;;;;;5016082;28;20024;-72
2022/04/29 06:31:43;;;;;;;;;;;6.10;99.90;;;;;;5012906;28;20381;-72
2022/04/29 06:34:28;;;;;;;;;;;6.10;99.90;;;;;;5028163;28;19936;-72
2022/04/29 06:37:00;;;;;;;;;;;6.20;99.90;;;;;;5014653;28;19931;-72
2022/04/29 06:39:32;;;;;;;;;;;6.40;99.90;;;;;;5012615;28;20305;-72
2022/04/29 06:42:17;;;;;;;;;;;6.50;99.90;;;;;;5030690;28;19932;-76
2022/04/29 06:45:11;;;;;;;;;;;6.60;99.90;;;;;;5013277;28;20308;-72
2022/04/29 06:48:03;;;;;;;;;;;6.70;99.90;;;;;;4998719;28;19925;-71
2022/04/29 06:50:48;;;;;;;;;;;6.80;99.90;;;;;;5014608;28;20420;-72
2022/04/29 06:53:40;;;;;;;;;;;6.90;99.90;;;;;;4999001;28;20027;-72
2022/04/29 06:56:15;;;;;;;;;;;7.10;99.90;;;;;;5003035;28;19926;-72
2022/04/29 06:58:47;;;;;;;;;;;7.20;99.90;;;;;;5012889;28;19980;-72
2022/04/29 07:01:20;;;;;;;;;;;7.30;99.90;;;;;;5014454;28;20397;-72
2022/04/29 07:03:52;;;;;;;;;;;7.50;99.90;;;;;;5018134;28;19948;-71
2022/04/29 07:06:19;;;;;;;;;;;7.60;99.90;;;;;;4994938;28;19947;-72
2022/04/29 07:08:52;;;;;;;;;;;7.80;99.90;;;;;;4987694;28;20372;-72
2022/04/29 07:11:56;;;;;;;;;;;8.00;99.90;;;;;;5004608;28;19933;-72
2022/04/29 07:14:45;;;;;;;;;;;8.20;99.90;;;;;;5012634;28;19965;-72
2022/04/29 07:17:18;;;;;;;;;;;8.40;99.90;;;;;;5022556;28;19925;-72
2022/04/29 07:19:47;;;;;;;;;;;8.70;99.90;;;;;;5012753;28;19972;-71
2022/04/29 07:22:20;;;;;;;;;;;8.90;99.90;;;;;;5010084;28;20382;-72
2022/04/29 07:24:53;;;;;;;;;;;9.10;99.90;;;;;;4994756;28;19976;-72
2022/04/29 07:27:20;;;;;;;;;;;9.30;99.90;;;;;;5030139;28;19925;-71
2022/04/29 07:29:52;;;;;;;;;;;9.50;99.90;;;;;;5014092;28;20451;-71
2022/04/29 07:32:36;;;;;;;;;;;9.70;99.90;;;;;;5010670;28;19925;-71
2022/04/29 07:44:00;;;;;;;;;;;10.40;99.90;;;;;;5007959;28;20360;-71
2022/04/29 07:46:37;;;;;;;;;;;10.60;99.90;;;;;;5021215;28;20306;-69
2022/04/29 07:49:38;;;;;;;;;;;10.80;99.90;;;;;;5034092;28;19933;-70
2022/04/29 07:52:05;;;;;;;;;;;11.10;99.90;;;;;;5016568;28;19929;-72
2022/04/29 07:54:36;;;;;;;;;;;11.20;99.90;;;;;;4997860;28;19988;-71
2022/04/29 07:57:04;;;;;;;;;;;11.40;99.90;;;;;;4999237;28;19926;-70
2022/04/29 07:59:35;;;;;;;;;;;11.60;99.90;;;;;;5006758;28;20031;-70
2022/04/29 08:02:25;;;;;;;;;;;11.90;99.90;;;;;;5002530;28;19991;-70
2022/04/29 08:04:57;;;;;;;;;;;12.10;99.90;;;;;;5018109;28;19925;-70
2022/04/29 08:07:29;;;;;;;;;;;12.30;99.90;;;;;;5016177;28;19925;-70
2022/04/29 08:09:55;;;;;;;;;;;12.50;99.90;;;;;;5015856;28;19936;-71
2022/04/29 08:12:27;;;;;;;;;;;12.60;99.90;;;;;;4999002;28;19925;-74
2022/04/29 08:15:18;;;;;;;;;;;12.90;99.90;;;;;;5028372;28;19979;-70
2022/04/29 08:18:12;;;;;;;;;;;13.00;99.90;;;;;;5000349;28;20382;-70
2022/04/29 08:20:44;;;;;;;;;;;13.20;99.90;;;;;;5016928;28;19926;-70
2022/04/29 08:23:17;;;;;;;;;;;13.40;99.90;;;;;;4985624;28;19925;-70
2022/04/29 08:25:49;;;;;;;;;;;13.50;99.90;;;;;;5008325;28;19925;-71
2022/04/29 08:28:20;;;;;;;;;;;13.70;99.90;;;;;;5023344;28;19925;-70
2022/04/29 08:30:47;;;;;;;;;;;13.80;99.90;;;;;;5016845;28;20427;-70
2022/04/29 08:33:21;;;;;;;;;;;13.90;99.90;;;;;;5022175;28;19971;-70
2022/04/29 08:36:05;;;;;;;;;;;14.00;99.90;;;;;;5023915;28;20457;-70
2022/04/29 08:38:32;;;;;;;;;;;14.10;97.10;;;;;;5021782;28;19933;-70
2022/04/29 08:41:06;;;;;;;;;;;14.20;96.90;;;;;;5000342;28;20472;-71
2022/04/29 08:43:38;;;;;;;;;;;14.30;97.80;;;;;;5008640;28;20032;-70
2022/04/29 08:46:11;;;;;;;;;;;14.40;95.60;;;;;;5024104;28;19925;-70
2022/04/29 08:48:59;;;;;;;;;;;14.40;96.50;;;;;;5030387;28;19984;-68
2022/04/29 08:51:31;;;;;;;;;;;14.50;95.80;;;;;;5031573;28;19937;-69
2022/04/29 08:54:04;;;;;;;;;;;14.60;94.50;;;;;;5025909;28;20013;-69
2022/04/29 08:59:27;;;;;;;;;;;14.90;93.70;;;;;;5014884;28;19929;-70
2022/04/29 09:01:59;;;;;;;;;;;15.00;93.80;;;;;;5008192;28;20310;-72
2022/04/29 09:04:31;;;;;;;;;;;15.20;91.80;;;;;;5014835;28;20306;-70
2022/04/29 09:07:03;;;;;;;;;;;15.40;90.80;;;;;;5015814;28;20007;-70
2022/04/29 09:09:29;;;;;;;;;;;15.50;91.30;;;;;;5034116;28;19925;-70
2022/04/29 09:12:15;;;;;;;;;;;15.70;91.40;;;;;;5028313;28;19937;-70
2022/04/29 09:14:46;;;;;;;;;;;15.90;90.20;;;;;;5032041;28;19933;-70
2022/04/29 09:17:39;;;;;;;;;;;16.00;86.50;;;;;;5030943;28;19925;-69
2022/04/29 09:20:18;;;;;;;;;;;16.10;83.50;;;;;;5015703;28;19925;-70
2022/04/29 09:22:50;;;;;;;;;;;16.10;84.90;;;;;;5026182;28;19926;-69
2022/04/29 09:26:05;;;;;;;;;;;16.10;83.00;;;;;;5032022;28;19932;-70
2022/04/29 09:28:49;;;;;;;;;;;16.10;81.50;;;;;;5012400;28;19925;-70
2022/04/29 09:31:47;;;;;;;;;;;16.10;83.50;;;;;;4996704;28;19932;-69
2022/04/29 09:34:58;;;;;;;;;;;16.30;83.80;;;;;;4977667;28;20452;-70
2022/04/29 09:37:31;;;;;;;;;;;16.40;79.70;;;;;;4988648;28;19940;-70
2022/04/29 09:40:04;;;;;;;;;;;16.50;79.00;;;;;;5000841;28;19929;-70
2022/04/29 09:42:37;;;;;;;;;;;16.60;80.50;;;;;;5027894;28;19929;-71
2022/04/29 09:45:17;;;;;;;;;;;16.70;78.20;;;;;;5010718;28;19935;-70
2022/04/29 09:47:55;;;;;;;;;;;16.70;79.80;;;;;;5011950;28;19936;-70
2022/04/29 09:50:22;;;;;;;;;;;16.90;76.40;;;;;;4980709;28;20029;-71
2022/04/29 09:52:54;;;;;;;;;;;16.80;76.70;;;;;;5012357;28;19932;-71
2022/04/29 09:55:25;;;;;;;;;;;16.90;78.40;;;;;;5024717;28;19930;-70
2022/04/29 09:57:59;;;;;;;;;;;16.80;75.40;;;;;;5010294;28;19956;-71
2022/04/29 10:00:30;;;;;;;;;;;16.70;73.60;;;;;;5007039;28;20024;-70
2022/04/29 10:03:03;;;;;;;;;;;16.80;73.80;;;;;;5027873;28;19929;-70
2022/04/29 10:05:31;;;;;;;;;;;16.90;74.50;;;;;;5024522;28;19932;-71
2022/04/29 10:08:04;;;;;;;;;;;17.00;75.70;;;;;;5008751;28;19955;-71
2022/04/29 10:10:31;;;;;;;;;;;17.10;73.90;;;;;;5021296;28;19992;-70
2022/04/29 10:13:05;;;;;;;;;;;17.20;73.30;;;;;;4999206;28;19929;-70
2022/04/29 10:15:42;;;;;;;;;;;17.30;72.60;;;;;;5014634;28;19983;-70
2022/04/29 10:21:50;;;;;;;;;;;17.60;69.50;;;;;;5002389;28;20462;-70
2022/04/29 10:24:17;;;;;;;;;;;17.80;75.10;;;;;;5024690;28;20401;-71
2022/04/29 10:26:52;;;;;;;;;;;18.00;71.90;;;;;;5009819;28;20390;-69
2022/04/29 10:29:19;;;;;;;;;;;18.20;69.30;;;;;;5018671;28;19929;-72
2022/04/29 10:32:04;;;;;;;;;;;18.30;66.60;;;;;;5007899;28;19925;-70
2022/04/29 10:34:36;;;;;;;;;;;18.40;66.40;;;;;;5024179;28;19929;-70
2022/04/29 10:37:10;;;;;;;;;;;18.50;66.20;;;;;;5009426;28;19987;-70
2022/04/29 10:40:01;;;;;;;;;;;18.50;64.30;;;;;;5020720;28;19936;-70
2022/04/29 10:42:53;;;;;;;;;;;18.40;66.90;;;;;;5024608;28;20301;-70
2022/04/29 10:45:24;;;;;;;;;;;18.30;66.70;;;;;;5010510;28;19929;-72
2022/04/29 10:47:56;;;;;;;;;;;18.10;67.20;;;;;;5003189;28;19929;-72
2022/04/29 10:50:36;;;;;;;;;;;18.10;66.70;;;;;;5026354;28;20471;-72
2022/04/29 10:53:35;;;;;;;;;;;17.90;68.30;;;;;;5018160;28;19932;-72
2022/04/29 10:56:32;;;;;;;;;;;17.80;67.50;;;;;;5008858;28;19929;-70
2022/04/29 10:59:05;;;;;;;;;;;17.70;68.70;;;;;;5019402;28;19925;-70
2022/04/29 11:01:37;;;;;;;;;;;17.70;68.90;;;;;;5021560;28;19940;-70
2022/04/29 11:04:15;;;;;;;;;;;17.80;70.70;;;;;;5006169;28;20445;-70
2022/04/29 11:06:47;;;;;;;;;;;17.90;69.80;;;;;;5024080;28;19925;-69
2022/04/29 11:09:42;;;;;;;;;;;18.00;69.50;;;;;;5015107;28;19924;-70
2022/04/29 11:12:37;;;;;;;;;;;18.20;69.90;;;;;;5021591;28;19929;-72
2022/04/29 11:15:24;;;;;;;;;;;18.50;69.40;;;;;;5031189;28;19936;-69
2022/04/29 11:18:18;;;;;;;;;;;18.80;68.50;;;;;;5011077;28;19932;-70
2022/04/29 11:20:45;;;;;;;;;;;19.00;65.70;;;;;;5022649;28;19933;-69
2022/04/29 11:26:43;;;;;;;;;;;19.10;66.30;;;;;;4926518;29;20348;-71
2022/04/29 11:29:17;;;;;;;;;;;19.00;65.10;;;;;;4929538;29;19931;-72
2022/04/29 11:31:46;;;;;;;;;;;18.90;64.60;;;;;;4983596;28;20287;-69
2022/04/29 11:34:18;;;;;;;;;;;18.90;63.70;;;;;;5008514;28;20408;-70
2022/04/29 11:36:44;;;;;;;;;;;18.80;64.90;;;;;;5010542;28;19952;-71
2022/04/29 11:39:17;;;;;;;;;;;18.80;64.40;;;;;;5010353;28;19932;-72
2022/04/29 11:41:53;;;;;;;;;;;18.70;64.10;;;;;;5027952;28;20323;-70
2022/04/29 11:44:35;;;;;;;;;;;18.60;62.10;;;;;;5026975;28;20378;-69
2022/04/29 11:47:06;;;;;;;;;;;18.70;62.40;;;;;;5025856;28;19925;-71
2022/04/29 11:49:41;;;;;;;;;;;18.70;63.00;;;;;;5002946;28;19929;-70
2022/04/29 11:52:19;;;;;;;;;;;18.70;63.60;;;;;;5015363;28;19925;-69
2022/04/29 11:54:57;;;;;;;;;;;18.80;61.70;;;;;;5011599;28;19929;-70
2022/04/29 11:57:30;;;;;;;;;;;19.00;63.20;;;;;;5008423;28;19936;-70
2022/04/29 12:00:03;;;;;;;;;;;19.20;63.90;;;;;;5006432;28;19933;-70
2022/04/29 12:02:45;;;;;;;;;;;19.40;64.30;;;;;;5024160;28;20690;-70
2022/04/29 12:05:22;;;;;;;;;;;19.60;65.90;;;;;;5008915;28;19956;-70
2022/04/29 12:07:51;;;;;;;;;;;19.80;62.60;;;;;;5021428;28;19975;-70
2022/04/29 12:10:33;;;;;;;;;;;20.00;63.30;;;;;;5011579;28;20040;-71
2022/04/29 12:13:01;;;;;;;;;;;20.20;63.90;;;;;;5021666;28;20032;-70
2022/04/29 12:15:35;;;;;;;;;;;20.30;61.10;;;;;;5021483;28;19925;-70
2022/04/29 12:18:09;;;;;;;;;;;20.40;59.30;;;;;;5006982;28;19935;-71
2022/04/29 12:20:45;;;;;;;;;;;20.50;59.80;;;;;;5011924;28;19926;-70
2022/04/29 12:23:13;;;;;;;;;;;20.50;60.90;;;;;;5010440;28;19933;-70
2022/04/29 12:25:45;;;;;;;;;;;20.50;61.80;;;;;;5009811;28;20370;-70
2022/04/29 12:28:22;;;;;;;;;;;20.70;62.10;;;;;;5026134;28;19933;-72
2022/04/29 12:36:46;;;;;;;;;;;20.70;58.70;;;;;;5019836;28;19984;-70
2022/04/29 12:39:15;;;;;;;;;;;20.60;58.50;;;;;;5025303;28;20402;-70
2022/04/29 12:41:55;;;;;;;;;;;20.50;58.40;;;;;;5008752;28;19992;-72
2022/04/29 12:47:19;;;;;;;;;;;20.50;57.30;;;;;;5021093;28;19929;-70
2022/04/29 12:49:46;;;;;;;;;;;20.60;55.90;;;;;;5013347;28;20012;-71
2022/04/29 12:52:18;;;;;;;;;;;20.60;54.70;;;;;;5030516;28;19960;-72
2022/04/29 12:54:49;;;;;;;;;;;20.70;55.90;;;;;;4995798;28;19934;-70
2022/04/29 12:57:29;;;;;;;;;;;20.80;58.30;;;;;;5026935;28;19940;-70
2022/04/29 13:00:02;;;;;;;;;;;21.00;56.40;;;;;;5010930;28;20018;-72
2022/04/29 13:02:34;;;;;;;;;;;21.20;55.50;;;;;;5024918;28;19925;-70
2022/04/29 13:05:06;;;;;;;;;;;21.40;53.70;;;;;;5018824;28;19982;-70
2022/04/29 13:07:46;;;;;;;;;;;21.50;55.20;;;;;;5024188;28;19932;-70
2022/04/29 13:10:18;;;;;;;;;;;21.40;54.60;;;;;;5019163;28;19939;-70
2022/04/29 13:12:45;;;;;;;;;;;21.50;55.40;;;;;;5020313;28;19925;-71
2022/04/29 13:15:26;;;;;;;;;;;21.40;54.40;;;;;;5009932;28;19968;-70
2022/04/29 13:17:59;;;;;;;;;;;21.40;53.30;;;;;;5005093;28;19940;-69
2022/04/29 13:20:31;;;;;;;;;;;21.50;54.70;;;;;;5025895;28;19929;-71
2022/04/29 13:23:03;;;;;;;;;;;21.60;53.00;;;;;;5014338;28;19925;-70
2022/04/29 13:25:38;;;;;;;;;;;21.50;53.10;;;;;;5004240;28;19926;-70
2022/04/29 13:28:11;;;;;;;;;;;21.60;53.50;;;;;;5008728;28;19932;-69
2022/04/29 13:30:42;;;;;;;;;;;21.60;53.60;;;;;;5015924;28;19929;-70
2022/04/29 13:33:14;;;;;;;;;;;21.60;52.00;;;;;;5009313;28;19960;-70
2022/04/29 13:35:46;;;;;;;;;;;21.60;52.50;;;;;;5004405;28;19929;-69
2022/04/29 13:38:17;;;;;;;;;;;21.80;52.50;;;;;;5029143;28;19929;-71
2022/04/29 13:40:50;;;;;;;;;;;21.70;52.70;;;;;;5027801;28;19925;-69
2022/04/29 13:43:21;;;;;;;;;;;21.70;52.90;;;;;;5027836;28;19925;-70
2022/04/29 13:45:53;;;;;;;;;;;21.60;52.70;;;;;;5024398;28;19929;-72
2022/04/29 13:48:25;;;;;;;;;;;21.40;53.40;;;;;;5029556;28;20355;-70
2022/04/29 13:50:56;;;;;;;;;;;21.30;53.80;;;;;;5026881;28;19925;-70
2022/04/29 13:53:28;;;;;;;;;;;21.30;53.50;;;;;;5028829;28;19947;-70
2022/04/29 13:56:00;;;;;;;;;;;21.50;50.50;;;;;;5025156;28;19936;-71
2022/04/29 13:58:31;;;;;;;;;;;21.60;50.30;;;;;;5009712;28;19932;-72
2022/04/29 14:00:58;;;;;;;;;;;21.70;51.10;;;;;;4991333;28;19937;-70
2022/04/29 14:03:29;;;;;;;;;;;21.80;51.70;;;;;;5027385;28;19929;-69
2022/04/29 14:06:01;;;;;;;;;;;22.00;50.40;;;;;;5009939;28;19941;-71
2022/04/29 14:08:33;;;;;;;;;;;22.10;51.70;;;;;;5025144;28;19925;-71
2022/04/29 14:10:59;;;;;;;;;;;22.10;50.20;;;;;;5028595;28;19936;-70
2022/04/29 14:13:31;;;;;;;;;;;22.10;49.90;;;;;;5026383;28;19933;-70
2022/04/29 14:16:03;;;;;;;;;;;22.30;48.50;;;;;;5028058;28;19946;-70
2022/04/29 14:18:35;;;;;;;;;;;22.50;48.90;;;;;;5007211;28;19928;-70
2022/04/29 14:21:07;;;;;;;;;;;22.60;48.40;;;;;;5010729;28;20397;-69
2022/04/29 14:23:39;;;;;;;;;;;22.60;45.30;;;;;;5026560;28;19933;-68
2022/04/29 14:26:10;;;;;;;;;;;22.70;47.50;;;;;;5021512;28;19952;-70
2022/04/29 14:28:42;;;;;;;;;;;22.70;48.00;;;;;;5010967;28;19925;-70
2022/04/29 14:31:14;;;;;;;;;;;22.70;47.30;;;;;;5010869;28;19929;-70
2022/04/29 14:33:46;;;;;;;;;;;22.80;47.80;;;;;;5011642;28;20421;-70
2022/04/29 14:36:19;;;;;;;;;;;22.90;48.40;;;;;;5028869;28;19929;-70
2022/04/29 14:38:51;;;;;;;;;;;23.00;47.00;;;;;;5029570;28;20286;-70
2022/04/29 14:41:23;;;;;;;;;;;23.00;48.00;;;;;;5023406;28;19930;-70
2022/04/29 14:43:57;;;;;;;;;;;23.20;49.90;;;;;;5025988;28;19929;-70
2022/04/29 14:46:30;;;;;;;;;;;23.30;47.20;;;;;;5029047;28;19929;-70
2022/04/29 14:49:02;;;;;;;;;;;23.20;47.40;;;;;;5015848;28;20424;-70
2022/04/29 14:51:36;;;;;;;;;;;23.10;47.40;;;;;;5009311;28;19933;-69
2022/04/29 14:54:08;;;;;;;;;;;22.60;47.70;;;;;;5026463;28;19925;-70
2022/04/29 14:56:43;;;;;;;;;;;22.30;47.60;;;;;;5025397;28;19940;-70
2022/04/29 14:59:17;;;;;;;;;;;22.10;47.50;;;;;;5021734;28;20427;-70
2022/04/29 15:01:51;;;;;;;;;;;21.90;49.70;;;;;;5010474;28;20372;-70
2022/04/29 15:04:23;;;;;;;;;;;21.70;49.10;;;;;;5026722;28;19926;-70
2022/04/29 15:06:55;;;;;;;;;;;21.60;48.60;;;;;;5024519;28;20279;-70
2022/04/29 15:17:58;;;;;;;;;;;21.20;49.70;;;;;;5027557;28;19963;-70
2022/04/29 15:20:30;;;;;;;;;;;21.10;51.10;;;;;;5009527;28;19929;-70
2022/04/29 15:22:59;;;;;;;;;;;21.00;50.60;;;;;;5020649;28;20406;-70
2022/04/29 15:25:33;;;;;;;;;;;20.90;51.50;;;;;;5022668;28;19929;-70
2022/04/29 15:27:59;;;;;;;;;;;20.80;51.80;;;;;;5017490;28;20317;-70
2022/04/29 15:30:38;;;;;;;;;;;20.80;51.90;;;;;;5021906;28;20047;-69
2022/04/29 15:33:11;;;;;;;;;;;20.80;52.70;;;;;;5008249;28;19929;-70
2022/04/29 15:35:43;;;;;;;;;;;20.70;51.50;;;;;;5023917;28;19951;-70
2022/04/29 15:38:15;;;;;;;;;;;20.60;52.70;;;;;;5022326;28;19929;-70
2022/04/29 15:40:47;;;;;;;;;;;20.50;53.00;;;;;;5006492;28;19936;-70
2022/04/29 15:43:20;;;;;;;;;;;20.50;52.00;;;;;;5025685;28;19932;-70
2022/04/29 15:45:48;;;;;;;;;;;20.40;52.90;;;;;;5021562;28;19929;-70
2022/04/29 15:48:15;;;;;;;;;;;20.30;52.80;;;;;;5011512;28;19925;-70